Time;durP1;ratioP1;P1;durP2;ratioP2;P2;SDS_P1;SDS_P2;PMS_P1;PMS_P2;Temp;Humidity;BMP_temperature;BMP_pressure;BME280_temperature;BME280_humidity;BME280_pressure;Samples;Min_cycle;Max_cycle;Signal;HPM_P1;HPM_P2
2023/07/12 00:00:53;;;;;;;11.30;4.78;;;;;;;;;;6188038;23;20317;-79
2023/07/12 00:03:20;;;;;;;4.32;3.92;;;;;;;;;;6187138;23;20196;-78
2023/07/12 00:05:49;;;;;;;5.10;4.60;;;;;;;;;;6188024;23;20174;-79
2023/07/12 00:08:22;;;;;;;4.13;3.75;;;;;;;;;;6188360;23;20175;-78
2023/07/12 00:10:53;;;;;;;3.60;3.30;;;;;;;;;;6188247;23;20787;-79
2023/07/12 00:13:20;;;;;;;4.72;4.13;;;;;;;;;;6188248;23;20159;-78
2023/07/12 00:15:49;;;;;;;4.90;4.50;;;;;;;;;;6187923;23;20258;-79
2023/07/12 00:18:20;;;;;;;4.57;4.18;;;;;;;;;;6188282;23;20561;-79
2023/07/12 00:20:49;;;;;;;4.57;4.13;;;;;;;;;;6187803;23;20278;-79
2023/07/12 00:23:18;;;;;;;4.93;4.53;;;;;;;;;;6188034;23;20507;-79
2023/07/12 00:25:47;;;;;;;4.88;4.20;;;;;;;;;;6187478;23;20174;-79
2023/07/12 00:28:23;;;;;;;4.80;4.40;;;;;;;;;;6187178;23;20261;-79
2023/07/12 00:30:51;;;;;;;4.40;4.00;;;;;;;;;;6187328;23;20657;-79
2023/07/12 00:33:20;;;;;;;6.97;4.35;;;;;;;;;;6187936;23;20181;-79
2023/07/12 00:35:49;;;;;;;4.55;4.20;;;;;;;;;;6186830;23;20258;-78
2023/07/12 00:38:19;;;;;;;4.68;4.28;;;;;;;;;;6187695;23;20489;-78
2023/07/12 00:41:13;;;;;;;3.92;3.58;;;;;;;;;;6187629;23;20199;-79
2023/07/12 00:43:44;;;;;;;4.22;3.83;;;;;;;;;;6186968;23;20178;-77
2023/07/12 00:46:18;;;;;;;4.07;3.42;;;;;;;;;;6187728;23;20571;-79
2023/07/12 00:48:47;;;;;;;3.83;3.53;;;;;;;;;;6187649;23;20165;-79
2023/07/12 00:51:38;;;;;;;5.18;4.47;;;;;;;;;;6187607;23;20617;-79
2023/07/12 00:54:12;;;;;;;3.50;3.13;;;;;;;;;;6187253;23;20165;-77
2023/07/12 00:56:40;;;;;;;4.43;3.25;;;;;;;;;;6187316;23;20253;-77
2023/07/12 00:59:15;;;;;;;3.55;3.33;;;;;;;;;;6187590;23;20549;-78
2023/07/12 01:01:42;;;;;;;3.80;3.22;;;;;;;;;;6188406;23;20208;-77
2023/07/12 01:04:11;;;;;;;3.47;3.17;;;;;;;;;;6187051;23;20183;-79
2023/07/12 01:06:38;;;;;;;3.63;3.30;;;;;;;;;;6187459;23;20179;-79
2023/07/12 01:09:12;;;;;;;3.83;3.35;;;;;;;;;;6187424;23;20244;-79
2023/07/12 01:11:40;;;;;;;2.95;2.70;;;;;;;;;;6187339;23;20206;-79
2023/07/12 01:14:13;;;;;;;4.78;3.80;;;;;;;;;;6187385;23;20201;-79
2023/07/12 01:16:43;;;;;;;3.78;3.50;;;;;;;;;;6187285;23;20154;-79
2023/07/12 01:19:11;;;;;;;6.20;3.83;;;;;;;;;;6187064;23;20174;-77
2023/07/12 01:21:44;;;;;;;5.10;2.95;;;;;;;;;;6187666;23;20274;-77
2023/07/12 01:24:12;;;;;;;2.90;2.70;;;;;;;;;;6187399;23;20159;-79
2023/07/12 01:26:43;;;;;;;3.30;3.00;;;;;;;;;;6187638;23;20180;-78
2023/07/12 01:29:11;;;;;;;3.22;2.92;;;;;;;;;;6187489;23;20233;-77
2023/07/12 01:31:39;;;;;;;3.90;3.33;;;;;;;;;;6186756;23;20202;-79
2023/07/12 01:34:08;;;;;;;3.60;3.30;;;;;;;;;;6187063;23;20174;-77
2023/07/12 01:36:35;;;;;;;3.33;3.05;;;;;;;;;;6186917;23;20184;-79
2023/07/12 01:39:06;;;;;;;3.47;3.17;;;;;;;;;;6187047;23;20205;-78
2023/07/12 01:41:34;;;;;;;3.92;3.00;;;;;;;;;;6187128;23;20564;-79
2023/07/12 01:44:01;;;;;;;3.38;3.08;;;;;;;;;;6187652;23;20174;-78
2023/07/12 01:46:29;;;;;;;3.20;2.95;;;;;;;;;;6186929;23;20574;-76
2023/07/12 01:48:56;;;;;;;3.50;3.17;;;;;;;;;;6186857;23;20261;-77
2023/07/12 01:51:24;;;;;;;3.70;3.38;;;;;;;;;;6186536;23;20202;-78
2023/07/12 01:53:51;;;;;;;3.25;2.95;;;;;;;;;;6187460;23;20206;-78
2023/07/12 01:56:21;;;;;;;3.17;2.95;;;;;;;;;;6186699;23;20266;-77
2023/07/12 01:58:48;;;;;;;2.67;2.47;;;;;;;;;;6187225;23;20261;-79
2023/07/12 02:01:16;;;;;;;2.95;2.75;;;;;;;;;;6186900;23;20222;-79
2023/07/12 02:03:43;;;;;;;3.08;2.65;;;;;;;;;;6185978;23;20178;-76
2023/07/12 02:06:11;;;;;;;2.83;2.53;;;;;;;;;;6186862;23;20257;-79
2023/07/12 02:08:38;;;;;;;2.97;2.78;;;;;;;;;;6187298;23;20206;-78
2023/07/12 02:11:05;;;;;;;2.53;2.38;;;;;;;;;;6187206;23;20664;-78
2023/07/12 02:13:34;;;;;;;3.05;2.85;;;;;;;;;;6186338;23;20252;-78
2023/07/12 02:16:02;;;;;;;3.35;3.05;;;;;;;;;;6187116;23;20253;-78
2023/07/12 02:18:29;;;;;;;3.78;3.20;;;;;;;;;;6186717;23;20178;-78
2023/07/12 02:20:57;;;;;;;3.15;2.88;;;;;;;;;;6187038;23;20277;-79
2023/07/12 02:23:24;;;;;;;2.92;2.72;;;;;;;;;;6187458;23;20257;-78
2023/07/12 02:25:51;;;;;;;3.97;3.60;;;;;;;;;;6187239;23;20644;-78
2023/07/12 02:28:19;;;;;;;2.88;2.67;;;;;;;;;;6186849;23;20184;-79
2023/07/12 02:30:48;;;;;;;3.90;3.22;;;;;;;;;;6187316;23;20280;-79
2023/07/12 02:33:16;;;;;;;3.00;2.80;;;;;;;;;;6187085;23;20180;-77
2023/07/12 02:35:43;;;;;;;4.43;3.65;;;;;;;;;;6186989;23;20205;-79
2023/07/12 02:38:11;;;;;;;3.97;3.67;;;;;;;;;;6186896;23;20198;-79
2023/07/12 02:40:38;;;;;;;3.17;2.40;;;;;;;;;;6187361;23;20245;-79
2023/07/12 02:43:06;;;;;;;3.33;2.95;;;;;;;;;;6186643;23;20174;-79
2023/07/12 02:45:33;;;;;;;2.97;2.78;;;;;;;;;;6187018;23;20198;-78
2023/07/12 02:48:03;;;;;;;3.78;3.47;;;;;;;;;;6186397;23;20205;-79
2023/07/12 02:50:30;;;;;;;3.03;2.78;;;;;;;;;;6186125;23;20198;-78
2023/07/12 02:52:58;;;;;;;2.90;2.70;;;;;;;;;;6187087;23;20233;-77
2023/07/12 02:55:25;;;;;;;3.35;3.13;;;;;;;;;;6185917;23;20206;-79
2023/07/12 02:57:53;;;;;;;4.18;2.83;;;;;;;;;;6186249;23;20181;-79
2023/07/12 03:00:21;;;;;;;3.65;3.35;;;;;;;;;;6185907;23;20206;-76
2023/07/12 03:02:48;;;;;;;3.35;3.05;;;;;;;;;;6186787;23;20672;-77
2023/07/12 03:05:17;;;;;;;3.13;2.63;;;;;;;;;;6187161;23;20252;-78
2023/07/12 03:07:44;;;;;;;4.00;3.35;;;;;;;;;;6186575;23;20202;-77
2023/07/12 03:10:12;;;;;;;3.97;3.45;;;;;;;;;;6186287;23;20201;-79
2023/07/12 03:12:39;;;;;;;3.05;2.80;;;;;;;;;;6188590;23;20666;-77
2023/07/12 03:15:08;;;;;;;2.78;2.58;;;;;;;;;;6186474;23;20179;-77
2023/07/12 03:17:35;;;;;;;3.20;3.00;;;;;;;;;;6184228;23;20278;-77
2023/07/12 03:20:03;;;;;;;3.15;2.85;;;;;;;;;;6184907;23;20262;-77
2023/07/12 03:22:32;;;;;;;3.22;2.92;;;;;;;;;;6184133;23;20170;-78
2023/07/12 03:24:59;;;;;;;2.78;2.60;;;;;;;;;;6185340;23;20261;-77
2023/07/12 03:27:27;;;;;;;3.60;3.35;;;;;;;;;;6184071;23;20175;-77
2023/07/12 03:29:55;;;;;;;2.50;2.35;;;;;;;;;;6184485;23;20175;-78
2023/07/12 03:32:23;;;;;;;2.65;2.45;;;;;;;;;;6183919;23;20199;-77
2023/07/12 03:34:50;;;;;;;3.17;2.78;;;;;;;;;;6184338;23;20197;-78
2023/07/12 03:37:18;;;;;;;3.20;2.97;;;;;;;;;;6183748;23;20181;-78
2023/07/12 03:39:46;;;;;;;3.55;3.25;;;;;;;;;;6184296;23;20206;-77
2023/07/12 03:42:14;;;;;;;3.58;3.28;;;;;;;;;;6184006;23;20220;-77
2023/07/12 03:44:41;;;;;;;4.22;3.55;;;;;;;;;;6184101;23;20305;-77
2023/07/12 03:47:09;;;;;;;3.35;3.15;;;;;;;;;;6183275;23;20257;-77
2023/07/12 03:49:36;;;;;;;3.92;2.90;;;;;;;;;;6184618;23;20737;-76
2023/07/12 03:52:05;;;;;;;3.30;3.00;;;;;;;;;;6183823;23;20198;-76
2023/07/12 03:54:32;;;;;;;8.43;3.33;;;;;;;;;;6184799;23;20180;-77
2023/07/12 03:57:01;;;;;;;2.83;2.63;;;;;;;;;;6183651;23;20663;-78
2023/07/12 03:59:28;;;;;;;3.42;2.97;;;;;;;;;;6184180;23;20693;-76
2023/07/12 04:01:56;;;;;;;3.13;2.83;;;;;;;;;;6183266;23;20741;-77
2023/07/12 04:04:23;;;;;;;3.47;2.92;;;;;;;;;;6183216;23;20180;-78
2023/07/12 04:06:51;;;;;;;2.80;2.60;;;;;;;;;;6183576;23;20174;-77
2023/07/12 04:09:18;;;;;;;2.72;2.53;;;;;;;;;;6182846;23;20178;-76
2023/07/12 04:11:46;;;;;;;2.83;2.55;;;;;;;;;;6183746;23;20198;-76
2023/07/12 04:14:14;;;;;;;3.60;2.72;;;;;;;;;;6183074;23;20174;-77
2023/07/12 04:16:42;;;;;;;3.25;2.88;;;;;;;;;;6183615;23;20174;-78
2023/07/12 04:19:09;;;;;;;2.67;2.40;;;;;;;;;;6182992;23;20702;-77
2023/07/12 04:21:37;;;;;;;4.07;2.50;;;;;;;;;;6183462;23;20205;-76
2023/07/12 04:24:05;;;;;;;2.33;2.13;;;;;;;;;;6183282;23;20174;-77
2023/07/12 04:26:32;;;;;;;3.20;2.90;;;;;;;;;;6183026;23;20257;-77
2023/07/12 04:29:01;;;;;;;3.50;2.55;;;;;;;;;;6182527;23;20252;-78
2023/07/12 04:31:30;;;;;;;3.53;2.75;;;;;;;;;;6183966;23;20202;-77
2023/07/12 04:33:57;;;;;;;3.35;2.50;;;;;;;;;;6183728;23;20290;-78
2023/07/12 04:36:25;;;;;;;2.92;2.65;;;;;;;;;;6183909;23;20312;-76
2023/07/12 04:38:52;;;;;;;2.58;2.38;;;;;;;;;;6182887;23;20198;-77
2023/07/12 04:41:20;;;;;;;2.55;2.35;;;;;;;;;;6183836;23;20269;-76
2023/07/12 04:43:47;;;;;;;2.30;1.90;;;;;;;;;;6183732;23;20252;-77
2023/07/12 04:46:14;;;;;;;2.58;2.38;;;;;;;;;;6183358;23;20225;-78
2023/07/12 04:48:43;;;;;;;2.08;1.90;;;;;;;;;;6183823;23;20697;-76
2023/07/12 04:51:11;;;;;;;4.07;2.30;;;;;;;;;;6184456;23;20200;-77
2023/07/12 04:53:38;;;;;;;2.58;2.22;;;;;;;;;;6184176;23;20281;-77
2023/07/12 04:56:05;;;;;;;3.63;2.58;;;;;;;;;;6184585;23;20237;-77
2023/07/12 04:58:33;;;;;;;3.40;2.45;;;;;;;;;;6185037;23;20174;-76
2023/07/12 05:01:02;;;;;;;2.75;2.30;;;;;;;;;;6186367;23;20206;-77
2023/07/12 05:03:29;;;;;;;7.70;3.13;;;;;;;;;;6186573;23;20178;-77
2023/07/12 05:06:00;;;;;;;1.73;1.63;;;;;;;;;;6185673;23;20206;-78
2023/07/12 05:08:27;;;;;;;2.80;2.03;;;;;;;;;;6186095;23;20216;-78
2023/07/12 05:10:59;;;;;;;1.45;1.30;;;;;;;;;;6185472;23;20270;-77
2023/07/12 05:13:27;;;;;;;1.45;1.30;;;;;;;;;;6186790;23;20214;-77
2023/07/12 05:15:55;;;;;;;1.73;1.63;;;;;;;;;;6185568;23;20178;-76
2023/07/12 05:18:23;;;;;;;1.70;1.55;;;;;;;;;;6185521;23;20674;-77
2023/07/12 05:20:53;;;;;;;1.63;1.48;;;;;;;;;;6185051;23;20278;-77
2023/07/12 05:23:22;;;;;;;1.80;1.40;;;;;;;;;;6184841;23;20232;-77
2023/07/12 05:25:50;;;;;;;1.75;1.48;;;;;;;;;;6184010;23;20262;-77
2023/07/12 05:28:18;;;;;;;4.80;2.22;;;;;;;;;;6184802;23;20178;-78
2023/07/12 05:30:45;;;;;;;2.05;1.42;;;;;;;;;;6186005;23;20683;-78
2023/07/12 05:33:13;;;;;;;1.35;1.25;;;;;;;;;;6186173;23;20198;-78
2023/07/12 05:35:41;;;;;;;1.90;1.50;;;;;;;;;;6186012;23;20258;-76
2023/07/12 05:38:08;;;;;;;1.33;1.20;;;;;;;;;;6186066;23;20174;-77
2023/07/12 05:40:38;;;;;;;1.38;1.13;;;;;;;;;;6186618;23;20280;-80
2023/07/12 05:43:06;;;;;;;1.60;1.50;;;;;;;;;;6191418;23;20250;-80
2023/07/12 05:45:33;;;;;;;2.15;1.27;;;;;;;;;;6191036;23;20253;-78
2023/07/12 05:48:01;;;;;;;1.25;1.15;;;;;;;;;;6190526;23;20185;-80
2023/07/12 05:50:28;;;;;;;0.98;0.90;;;;;;;;;;6189280;23;20233;-80
2023/07/12 05:52:56;;;;;;;1.08;1.05;;;;;;;;;;6192618;23;20693;-80
2023/07/12 05:55:23;;;;;;;1.48;1.13;;;;;;;;;;6191969;23;20178;-79
2023/07/12 05:57:52;;;;;;;1.30;1.00;;;;;;;;;;6191072;23;20681;-81
2023/07/12 06:00:20;;;;;;;1.15;1.05;;;;;;;;;;6191998;23;20689;-82
2023/07/12 06:02:47;;;;;;;1.55;1.10;;;;;;;;;;6189811;23;20253;-80
2023/07/12 06:05:16;;;;;;;1.02;1.00;;;;;;;;;;6190286;23;20201;-80
2023/07/12 06:07:44;;;;;;;2.28;1.10;;;;;;;;;;6190504;23;20177;-80
2023/07/12 06:10:15;;;;;;;1.17;1.08;;;;;;;;;;6190061;23;20198;-80
2023/07/12 06:12:43;;;;;;;1.00;1.00;;;;;;;;;;6191310;23;20209;-80
2023/07/12 06:15:13;;;;;;;0.88;0.88;;;;;;;;;;6191865;23;20240;-80
2023/07/12 06:17:40;;;;;;;1.30;1.10;;;;;;;;;;6192899;23;20194;-79
2023/07/12 06:20:09;;;;;;;1.80;1.65;;;;;;;;;;6189845;23;20222;-79
2023/07/12 06:22:37;;;;;;;1.25;1.15;;;;;;;;;;6190461;23;20253;-80
2023/07/12 06:25:07;;;;;;;1.35;1.13;;;;;;;;;;6189568;23;20174;-80
2023/07/12 06:27:35;;;;;;;0.85;0.85;;;;;;;;;;6187596;23;20606;-80
2023/07/12 06:30:02;;;;;;;1.02;0.98;;;;;;;;;;6191492;23;20209;-80
2023/07/12 06:32:31;;;;;;;0.88;0.88;;;;;;;;;;6187667;23;20234;-79
2023/07/12 06:34:59;;;;;;;1.27;0.80;;;;;;;;;;6190160;23;20657;-80
2023/07/12 06:37:26;;;;;;;0.93;0.90;;;;;;;;;;6190271;23;20638;-79
2023/07/12 06:39:54;;;;;;;1.08;1.08;;;;;;;;;;6189606;23;20179;-79
2023/07/12 06:42:21;;;;;;;0.68;0.68;;;;;;;;;;6190180;23;20179;-79
2023/07/12 06:44:49;;;;;;;0.82;0.82;;;;;;;;;;6190142;23;20249;-79
2023/07/12 06:47:16;;;;;;;0.90;0.90;;;;;;;;;;6191446;23;20202;-79
2023/07/12 06:49:45;;;;;;;1.27;1.17;;;;;;;;;;6192284;23;20213;-79
2023/07/12 06:52:12;;;;;;;0.90;0.90;;;;;;;;;;6193331;23;20569;-79
2023/07/12 06:54:40;;;;;;;0.93;0.93;;;;;;;;;;6192250;23;20233;-79
2023/07/12 06:57:08;;;;;;;1.20;1.00;;;;;;;;;;6192724;23;20565;-79
2023/07/12 06:59:35;;;;;;;1.00;1.00;;;;;;;;;;6192229;23;20226;-79
2023/07/12 07:02:03;;;;;;;1.33;1.05;;;;;;;;;;6190797;23;20251;-79
2023/07/12 07:04:30;;;;;;;0.90;0.90;;;;;;;;;;6191255;23;20178;-79
2023/07/12 07:06:59;;;;;;;1.20;1.20;;;;;;;;;;6190099;23;20184;-79
2023/07/12 07:09:26;;;;;;;1.10;1.10;;;;;;;;;;6190722;23;20197;-80
2023/07/12 07:11:54;;;;;;;0.88;0.88;;;;;;;;;;6190145;23;20269;-79
2023/07/12 07:14:21;;;;;;;1.10;1.00;;;;;;;;;;6189771;23;20214;-80
2023/07/12 07:16:49;;;;;;;0.80;0.80;;;;;;;;;;6189244;23;20261;-80
2023/07/12 07:19:16;;;;;;;1.15;1.05;;;;;;;;;;6189977;23;20212;-79
2023/07/12 07:21:46;;;;;;;0.90;0.90;;;;;;;;;;6189804;23;20273;-79
2023/07/12 07:24:15;;;;;;;1.10;0.98;;;;;;;;;;6191182;23;20227;-79
2023/07/12 07:26:43;;;;;;;1.45;1.35;;;;;;;;;;6190465;23;20232;-79
2023/07/12 07:29:10;;;;;;;1.40;1.30;;;;;;;;;;6190722;23;20681;-79
2023/07/12 07:31:38;;;;;;;1.10;1.10;;;;;;;;;;6191174;23;20195;-79
2023/07/12 07:34:06;;;;;;;1.40;1.30;;;;;;;;;;6189703;23;20225;-79
2023/07/12 07:36:34;;;;;;;1.50;1.27;;;;;;;;;;6190037;23;20210;-79
2023/07/12 07:39:02;;;;;;;0.98;0.98;;;;;;;;;;6190234;23;20178;-79
2023/07/12 07:41:31;;;;;;;1.27;1.15;;;;;;;;;;6191176;23;20221;-79
2023/07/12 07:43:58;;;;;;;1.83;1.10;;;;;;;;;;6188940;23;20249;-79
2023/07/12 07:46:26;;;;;;;1.02;1.02;;;;;;;;;;6190974;23;20240;-79
2023/07/12 07:48:53;;;;;;;1.77;1.67;;;;;;;;;;6190006;23;20262;-79
2023/07/12 07:51:21;;;;;;;1.08;1.05;;;;;;;;;;6189851;23;20698;-79
2023/07/12 07:53:48;;;;;;;1.40;1.30;;;;;;;;;;6191563;23;20239;-79
2023/07/12 07:56:16;;;;;;;1.05;1.05;;;;;;;;;;6189070;23;20230;-79
2023/07/12 07:58:45;;;;;;;1.13;1.10;;;;;;;;;;6188545;23;20229;-79
2023/07/12 08:01:12;;;;;;;1.10;1.08;;;;;;;;;;6188535;23;20285;-79
2023/07/12 08:03:39;;;;;;;1.33;1.25;;;;;;;;;;6189181;23;20202;-79
2023/07/12 08:06:08;;;;;;;1.08;1.02;;;;;;;;;;6191469;23;20178;-79
2023/07/12 08:08:36;;;;;;;1.00;1.00;;;;;;;;;;6191071;23;20261;-79
2023/07/12 08:11:06;;;;;;;1.27;1.25;;;;;;;;;;6191309;23;20190;-80
2023/07/12 08:13:33;;;;;;;1.17;1.17;;;;;;;;;;6189391;23;20239;-79
2023/07/12 08:16:03;;;;;;;1.08;1.08;;;;;;;;;;6187730;23;20230;-80
2023/07/12 08:18:30;;;;;;;1.13;1.13;;;;;;;;;;6188577;23;20258;-79
2023/07/12 08:20:58;;;;;;;1.60;1.25;;;;;;;;;;6188773;23;20354;-80
2023/07/12 08:23:27;;;;;;;1.20;1.10;;;;;;;;;;6188736;23;20174;-79
2023/07/12 08:25:55;;;;;;;1.63;1.52;;;;;;;;;;6187366;23;20196;-79
2023/07/12 08:28:23;;;;;;;1.23;1.23;;;;;;;;;;6187524;23;20197;-80
2023/07/12 08:30:50;;;;;;;4.03;1.40;;;;;;;;;;6188829;23;20666;-79
2023/07/12 08:33:19;;;;;;;2.05;1.10;;;;;;;;;;6189076;23;20257;-79
2023/07/12 08:35:47;;;;;;;1.90;1.77;;;;;;;;;;6188296;23;20281;-80
2023/07/12 08:38:15;;;;;;;1.33;1.27;;;;;;;;;;6187814;23;20660;-80
2023/07/12 08:40:47;;;;;;;1.10;1.10;;;;;;;;;;6188240;23;20199;-78
2023/07/12 08:43:19;;;;;;;1.38;1.08;;;;;;;;;;6189621;23;20561;-79
2023/07/12 08:45:48;;;;;;;1.33;1.13;;;;;;;;;;6189016;23;20237;-79
2023/07/12 08:48:21;;;;;;;1.20;1.10;;;;;;;;;;6189083;23;20230;-80
2023/07/12 08:50:50;;;;;;;1.30;1.20;;;;;;;;;;6188460;23;20195;-80
2023/07/12 08:53:22;;;;;;;1.23;1.08;;;;;;;;;;6188306;23;20562;-79
2023/07/12 08:55:53;;;;;;;1.38;1.27;;;;;;;;;;6188088;23;20183;-79
2023/07/12 08:58:23;;;;;;;1.83;1.73;;;;;;;;;;6188171;23;20171;-79
2023/07/12 09:00:58;;;;;;;1.20;1.15;;;;;;;;;;6189301;23;20285;-80
2023/07/12 09:03:27;;;;;;;1.38;1.27;;;;;;;;;;6188756;23;20652;-79
2023/07/12 09:05:55;;;;;;;1.05;1.05;;;;;;;;;;6188790;23;20175;-79
2023/07/12 09:08:28;;;;;;;1.17;1.17;;;;;;;;;;6188298;23;20572;-79
2023/07/12 09:10:57;;;;;;;2.42;1.27;;;;;;;;;;6188900;23;20253;-79
2023/07/12 09:13:34;;;;;;;1.13;1.13;;;;;;;;;;6188753;23;20174;-79
2023/07/12 09:16:02;;;;;;;1.33;1.10;;;;;;;;;;6190517;23;20193;-80
2023/07/12 09:18:34;;;;;;;1.20;1.08;;;;;;;;;;6190647;23;20185;-80
2023/07/12 09:21:12;;;;;;;0.80;0.80;;;;;;;;;;6191638;23;20202;-79
2023/07/12 09:23:42;;;;;;;1.15;1.13;;;;;;;;;;6191113;23;20193;-80
2023/07/12 09:26:13;;;;;;;2.17;1.38;;;;;;;;;;6191289;23;20175;-80
2023/07/12 09:28:41;;;;;;;1.10;1.10;;;;;;;;;;6192878;23;20186;-79
2023/07/12 09:31:14;;;;;;;1.20;1.10;;;;;;;;;;6192757;23;20704;-79
2023/07/12 09:33:51;;;;;;;1.10;1.10;;;;;;;;;;6191759;23;20694;-79
2023/07/12 09:36:19;;;;;;;2.58;1.17;;;;;;;;;;6190246;23;20261;-79
2023/07/12 09:38:47;;;;;;;1.42;1.33;;;;;;;;;;6190376;23;20209;-80
2023/07/12 09:41:19;;;;;;;1.38;1.10;;;;;;;;;;6190955;23;20676;-80
2023/07/12 09:43:54;;;;;;;1.15;1.15;;;;;;;;;;6192192;23;20549;-80
2023/07/12 09:46:35;;;;;;;1.42;1.30;;;;;;;;;;6191849;23;20264;-80
2023/07/12 09:49:09;;;;;;;0.93;0.93;;;;;;;;;;6193472;23;20164;-79
2023/07/12 09:51:46;;;;;;;1.20;1.20;;;;;;;;;;6190450;23;20724;-81
2023/07/12 09:54:32;;;;;;;1.40;1.30;;;;;;;;;;6190689;23;20241;-78
2023/07/12 09:57:04;;;;;;;1.30;1.30;;;;;;;;;;6190244;23;20198;-79
2023/07/12 09:59:41;;;;;;;1.77;1.67;;;;;;;;;;6192056;23;20242;-79
2023/07/12 10:02:24;;;;;;;1.40;1.30;;;;;;;;;;6192510;23;20236;-79
2023/07/12 10:04:55;;;;;;;1.50;1.40;;;;;;;;;;6192436;23;20233;-80
2023/07/12 10:07:39;;;;;;;2.00;1.90;;;;;;;;;;6192716;23;20258;-78
2023/07/12 10:10:18;;;;;;;1.55;1.42;;;;;;;;;;6192338;23;20241;-78
2023/07/12 10:12:53;;;;;;;1.85;1.75;;;;;;;;;;6192444;23;20218;-79
2023/07/12 10:15:20;;;;;;;2.65;1.63;;;;;;;;;;6190645;23;20192;-78
2023/07/12 10:17:48;;;;;;;1.80;1.70;;;;;;;;;;6191691;23;20667;-79
2023/07/12 10:20:20;;;;;;;1.52;1.50;;;;;;;;;;6191518;23;20269;-79
2023/07/12 10:22:47;;;;;;;1.70;1.60;;;;;;;;;;6192772;23;20210;-82
2023/07/12 10:25:23;;;;;;;2.25;1.55;;;;;;;;;;6195318;23;20229;-81
2023/07/12 10:27:56;;;;;;;2.00;1.90;;;;;;;;;;6193518;23;20164;-81
2023/07/12 10:30:26;;;;;;;2.10;2.00;;;;;;;;;;6193600;23;20293;-80
2023/07/12 10:33:01;;;;;;;1.98;1.88;;;;;;;;;;6193104;23;20159;-81
2023/07/12 10:35:42;;;;;;;2.00;1.90;;;;;;;;;;6193143;23;20193;-80
2023/07/12 10:38:15;;;;;;;1.83;1.73;;;;;;;;;;6193925;23;20162;-81
2023/07/12 10:40:50;;;;;;;1.85;1.70;;;;;;;;;;6193027;23;20233;-81
2023/07/12 10:43:23;;;;;;;1.70;1.60;;;;;;;;;;6192437;23;20256;-80
2023/07/12 10:45:52;;;;;;;1.42;1.33;;;;;;;;;;6193334;23;20233;-81
2023/07/12 10:48:25;;;;;;;1.58;1.48;;;;;;;;;;6192990;23;20217;-81
2023/07/12 10:50:56;;;;;;;2.05;1.95;;;;;;;;;;6192070;23;20254;-81
2023/07/12 10:53:26;;;;;;;1.88;1.77;;;;;;;;;;6191956;23;20382;-80
2023/07/12 10:56:25;;;;;;;2.00;1.90;;;;;;;;;;6193637;23;20198;-81
2023/07/12 10:58:57;;;;;;;2.17;2.08;;;;;;;;;;6126719;23;20253;-80
2023/07/12 11:01:50;;;;;;;1.80;1.70;;;;;;;;;;6193214;23;20209;-81
2023/07/12 11:04:26;;;;;;;2.30;2.20;;;;;;;;;;6194809;23;20190;-81
2023/07/12 11:07:01;;;;;;;1.83;1.73;;;;;;;;;;6195386;23;20629;-81
2023/07/12 11:10:17;;;;;;;1.98;1.77;;;;;;;;;;6193419;23;20189;-82
2023/07/12 11:12:53;;;;;;;1.55;1.50;;;;;;;;;;6195033;23;20292;-80
2023/07/12 11:15:25;;;;;;;1.50;1.40;;;;;;;;;;6195801;23;20165;-81
2023/07/12 11:18:01;;;;;;;2.15;2.05;;;;;;;;;;6194296;23;20237;-80
2023/07/12 11:20:32;;;;;;;1.45;1.35;;;;;;;;;;6193991;23;20198;-80
2023/07/12 11:23:27;;;;;;;1.60;1.50;;;;;;;;;;6196901;23;20162;-80
2023/07/12 11:26:01;;;;;;;1.35;1.25;;;;;;;;;;6193875;23;20265;-80
2023/07/12 11:28:41;;;;;;;1.30;1.20;;;;;;;;;;6193948;23;20165;-80
2023/07/12 11:31:29;;;;;;;2.60;2.35;;;;;;;;;;6194344;23;20205;-80
2023/07/12 11:34:13;;;;;;;1.40;1.30;;;;;;;;;;6189799;23;20713;-80
2023/07/12 11:36:41;;;;;;;1.30;1.20;;;;;;;;;;6192234;23;20261;-80
2023/07/12 11:39:17;;;;;;;1.63;1.50;;;;;;;;;;6192803;23;20265;-79
2023/07/12 11:41:54;;;;;;;2.72;1.55;;;;;;;;;;6191729;23;20289;-80
2023/07/12 11:44:22;;;;;;;1.30;1.20;;;;;;;;;;6192116;23;20245;-80
2023/07/12 11:46:51;;;;;;;1.27;1.17;;;;;;;;;;6193063;23;20662;-80
2023/07/12 11:49:21;;;;;;;1.00;1.00;;;;;;;;;;6193511;23;20640;-80
2023/07/12 11:51:52;;;;;;;1.10;1.00;;;;;;;;;;6193045;23;20253;-80
2023/07/12 11:54:25;;;;;;;1.20;1.10;;;;;;;;;;6191915;23;20202;-80
2023/07/12 11:56:59;;;;;;;0.95;0.95;;;;;;;;;;6193255;23;20261;-81
2023/07/12 11:59:32;;;;;;;1.30;1.20;;;;;;;;;;6193277;23;20162;-80
2023/07/12 12:02:00;;;;;;;1.50;1.33;;;;;;;;;;6192693;23;20262;-81
2023/07/12 12:04:30;;;;;;;1.38;1.13;;;;;;;;;;6193986;23;20224;-80
2023/07/12 12:07:00;;;;;;;1.17;1.08;;;;;;;;;;6194603;23;20218;-80
2023/07/12 12:09:31;;;;;;;1.10;1.10;;;;;;;;;;6193371;23;20185;-80
2023/07/12 12:12:00;;;;;;;1.00;0.98;;;;;;;;;;6192103;23;20282;-80
2023/07/12 12:14:31;;;;;;;1.25;1.15;;;;;;;;;;6190752;23;20260;-79
2023/07/12 12:17:06;;;;;;;1.88;1.40;;;;;;;;;;6188565;23;20539;-80
2023/07/12 12:19:34;;;;;;;1.40;1.33;;;;;;;;;;6188375;23;20185;-80
2023/07/12 12:22:06;;;;;;;1.33;0.85;;;;;;;;;;6190773;23;20198;-80
2023/07/12 12:24:45;;;;;;;0.77;0.77;;;;;;;;;;6192629;23;20171;-80
2023/07/12 12:27:19;;;;;;;0.82;0.82;;;;;;;;;;6192849;23;20636;-81
2023/07/12 12:29:47;;;;;;;0.90;0.90;;;;;;;;;;6193112;23;20229;-81
2023/07/12 12:32:16;;;;;;;0.90;0.90;;;;;;;;;;6192488;23;20209;-80
2023/07/12 12:34:51;;;;;;;1.00;1.00;;;;;;;;;;6191229;23;20562;-80
2023/07/12 12:37:22;;;;;;;0.90;0.90;;;;;;;;;;6191685;23;20237;-80
2023/07/12 12:40:04;;;;;;;2.17;1.10;;;;;;;;;;6194686;23;20163;-80
2023/07/12 12:42:32;;;;;;;0.80;0.80;;;;;;;;;;6194092;23;20216;-80
2023/07/12 12:45:00;;;;;;;1.30;0.90;;;;;;;;;;6191523;23;20193;-80
2023/07/12 12:47:30;;;;;;;1.67;1.45;;;;;;;;;;6193735;23;20186;-80
2023/07/12 12:49:58;;;;;;;0.95;0.95;;;;;;;;;;6192683;23;20162;-80
2023/07/12 12:52:28;;;;;;;0.82;0.82;;;;;;;;;;6192728;23;20198;-80
2023/07/12 12:55:00;;;;;;;1.42;1.33;;;;;;;;;;6192070;23;20277;-80
2023/07/12 12:57:29;;;;;;;0.80;0.80;;;;;;;;;;6193726;23;20183;-80
2023/07/12 12:59:56;;;;;;;1.33;1.23;;;;;;;;;;6192596;23;20181;-80
2023/07/12 13:02:24;;;;;;;2.45;2.25;;;;;;;;;;6195212;23;20201;-80
2023/07/12 13:04:54;;;;;;;1.17;0.80;;;;;;;;;;6192280;23;20515;-80
2023/07/12 13:07:25;;;;;;;1.00;0.90;;;;;;;;;;6193232;23;20209;-80
2023/07/12 13:09:53;;;;;;;0.82;0.82;;;;;;;;;;6193633;23;20241;-80
2023/07/12 13:12:25;;;;;;;1.17;1.10;;;;;;;;;;6193522;23;20213;-79
2023/07/12 13:14:52;;;;;;;0.90;0.90;;;;;;;;;;6195428;23;20170;-80
2023/07/12 13:17:22;;;;;;;0.90;0.90;;;;;;;;;;6195120;23;20194;-81
2023/07/12 13:19:51;;;;;;;1.27;1.17;;;;;;;;;;6193003;23;20175;-80
2023/07/12 13:22:22;;;;;;;0.88;0.88;;;;;;;;;;6191414;23;20253;-80
2023/07/12 13:24:51;;;;;;;0.77;0.77;;;;;;;;;;6193097;23;20165;-80
2023/07/12 13:27:30;;;;;;;0.65;0.65;;;;;;;;;;6195422;23;20182;-81
2023/07/12 13:29:57;;;;;;;0.80;0.80;;;;;;;;;;6193980;23;20201;-80
2023/07/12 13:32:25;;;;;;;0.90;0.90;;;;;;;;;;6194799;23;20213;-80
2023/07/12 13:34:54;;;;;;;1.08;0.90;;;;;;;;;;6192009;23;20245;-80
2023/07/12 13:37:25;;;;;;;0.85;0.85;;;;;;;;;;6191498;23;20178;-81
2023/07/12 13:39:53;;;;;;;0.90;0.90;;;;;;;;;;6192759;23;20162;-80
2023/07/12 13:42:20;;;;;;;1.08;1.00;;;;;;;;;;6193997;23;20261;-81
2023/07/12 13:44:49;;;;;;;0.85;0.85;;;;;;;;;;6195097;23;20209;-80
2023/07/12 13:47:19;;;;;;;1.02;1.02;;;;;;;;;;6190530;23;20572;-80
2023/07/12 13:49:47;;;;;;;0.77;0.77;;;;;;;;;;6192638;23;20174;-80
2023/07/12 13:52:18;;;;;;;1.50;1.40;;;;;;;;;;6191580;23;20231;-80
2023/07/12 13:54:46;;;;;;;0.93;0.90;;;;;;;;;;6192176;23;20163;-81
2023/07/12 13:57:17;;;;;;;0.90;0.90;;;;;;;;;;6193085;23;20570;-80
2023/07/12 13:59:45;;;;;;;1.00;1.00;;;;;;;;;;6190772;23;20526;-81
2023/07/12 14:02:22;;;;;;;0.85;0.85;;;;;;;;;;6191020;23;20199;-80
2023/07/12 14:04:52;;;;;;;0.95;0.95;;;;;;;;;;6194607;23;20166;-80
2023/07/12 14:07:20;;;;;;;0.90;0.73;;;;;;;;;;6193116;23;20705;-80
2023/07/12 14:09:48;;;;;;;0.88;0.70;;;;;;;;;;6194766;23;20230;-81
2023/07/12 14:12:18;;;;;;;1.27;1.02;;;;;;;;;;6193007;23;20202;-81
2023/07/12 14:14:47;;;;;;;0.85;0.85;;;;;;;;;;6192930;23;20237;-80
2023/07/12 14:17:20;;;;;;;1.20;1.10;;;;;;;;;;6193517;23;20179;-81
2023/07/12 14:19:52;;;;;;;0.75;0.75;;;;;;;;;;6195000;23;20238;-80
2023/07/12 14:22:24;;;;;;;1.17;1.08;;;;;;;;;;6192370;23;20210;-80
2023/07/12 14:24:53;;;;;;;0.90;0.90;;;;;;;;;;6193233;23;20241;-80
2023/07/12 14:27:23;;;;;;;0.63;0.63;;;;;;;;;;6190488;23;20539;-80
2023/07/12 14:29:52;;;;;;;0.85;0.85;;;;;;;;;;6193834;23;20929;-80
2023/07/12 14:32:23;;;;;;;1.13;1.00;;;;;;;;;;6194329;23;20258;-80
2023/07/12 14:34:52;;;;;;;0.82;0.82;;;;;;;;;;6194365;23;20190;-80
2023/07/12 14:37:22;;;;;;;0.60;0.60;;;;;;;;;;6191656;23;20181;-80
2023/07/12 14:39:49;;;;;;;1.13;0.85;;;;;;;;;;6192106;23;20202;-80
2023/07/12 14:42:19;;;;;;;1.92;0.95;;;;;;;;;;6191846;23;20257;-80
2023/07/12 14:44:47;;;;;;;0.75;0.75;;;;;;;;;;6191283;23;20225;-80
2023/07/12 14:47:17;;;;;;;0.88;0.88;;;;;;;;;;6191980;23;20178;-80
2023/07/12 14:49:46;;;;;;;1.30;1.20;;;;;;;;;;6192031;23;20202;-80
2023/07/12 14:52:24;;;;;;;0.80;0.80;;;;;;;;;;6194261;23;20241;-81
2023/07/12 14:54:53;;;;;;;2.15;0.80;;;;;;;;;;6191207;23;20219;-79
2023/07/12 14:57:21;;;;;;;0.75;0.75;;;;;;;;;;6194422;23;20693;-80
2023/07/12 14:59:49;;;;;;;0.93;0.90;;;;;;;;;;6191567;23;20282;-81